Time;durP1;ratioP1;P1;durP2;ratioP2;P2;SDS_P1;SDS_P2;PMS_P1;PMS_P2;Temp;Humidity;BMP_temperature;BMP_pressure;BME280_temperature;BME280_humidity;BME280_pressure;Samples;Min_cycle;Max_cycle;Signal;HPM_P1;HPM_P2
2024/01/02 00:01:47;;;;;;;10.87;2.57;;;28.90;99.90;;;;;;4992854;28;20330;-73
2024/01/02 00:04:14;;;;;;;4.47;2.17;;;28.60;99.90;;;;;;4979155;28;20672;-73
2024/01/02 00:06:42;;;;;;;6.73;2.30;;;28.30;99.90;;;;;;4981366;28;20187;-73
2024/01/02 00:09:10;;;;;;;7.20;2.40;;;28.30;99.90;;;;;;4972667;28;20226;-73
2024/01/02 00:11:37;;;;;;;11.47;2.33;;;28.40;99.90;;;;;;4975433;28;20180;-73
2024/01/02 00:14:05;;;;;;;5.57;2.10;;;28.40;99.90;;;;;;4992518;28;20183;-73
2024/01/02 00:16:33;;;;;;;7.20;2.37;;;28.80;99.90;;;;;;4976857;28;20266;-73
2024/01/02 00:19:00;;;;;;;6.63;2.20;;;29.10;99.90;;;;;;4971552;28;20198;-73
2024/01/02 00:21:28;;;;;;;9.07;2.53;;;28.90;99.90;;;;;;4973262;28;20267;-73
2024/01/02 00:23:57;;;;;;;7.33;2.00;;;28.80;99.90;;;;;;4972754;28;20186;-72
2024/01/02 00:26:25;;;;;;;6.83;2.53;;;29.30;99.90;;;;;;4981104;28;20273;-73
2024/01/02 00:28:53;;;;;;;6.33;2.33;;;29.40;99.90;;;;;;4974711;28;20215;-71
2024/01/02 00:31:20;;;;;;;9.97;2.07;;;29.60;99.90;;;;;;4978494;28;20204;-72
2024/01/02 00:33:48;;;;;;;4.13;2.27;;;29.80;99.90;;;;;;4992294;28;20190;-72
2024/01/02 00:36:16;;;;;;;10.10;3.10;;;30.20;99.90;;;;;;4975771;28;20202;-71
2024/01/02 00:38:44;;;;;;;10.53;3.00;;;30.00;99.90;;;;;;4972654;28;20183;-72
2024/01/02 00:41:11;;;;;;;6.13;2.20;;;30.10;99.90;;;;;;4973346;28;20180;-74
2024/01/02 00:43:39;;;;;;;4.70;2.10;;;30.90;99.90;;;;;;4973216;28;20182;-73
2024/01/02 00:46:07;;;;;;;8.23;2.20;;;30.90;99.90;;;;;;4991295;28;20640;-73
2024/01/02 00:48:34;;;;;;;6.73;2.00;;;30.50;99.90;;;;;;4996611;28;20321;-73
2024/01/02 00:51:03;;;;;;;5.20;2.50;;;30.00;99.90;;;;;;4997531;28;20197;-70
2024/01/02 00:53:30;;;;;;;7.60;2.20;;;30.80;99.90;;;;;;4996295;28;20266;-73
2024/01/02 00:55:58;;;;;;;4.72;1.92;;;30.80;99.90;;;;;;4980178;28;20600;-72
2024/01/02 00:58:26;;;;;;;8.23;2.13;;;31.10;99.90;;;;;;4976835;28;20175;-71
2024/01/02 01:00:54;;;;;;;5.10;2.40;;;31.30;99.90;;;;;;4994326;28;20652;-72
2024/01/02 01:03:22;;;;;;;6.75;1.98;;;30.90;99.90;;;;;;4996096;28;20265;-72
2024/01/02 01:05:50;;;;;;;8.07;1.90;;;31.20;99.90;;;;;;4981276;28;20195;-72
2024/01/02 01:08:17;;;;;;;7.53;2.45;;;31.60;99.90;;;;;;4976146;28;20223;-71
2024/01/02 01:10:45;;;;;;;8.10;2.23;;;31.10;99.90;;;;;;4988643;28;20270;-71
2024/01/02 01:13:13;;;;;;;4.83;2.17;;;30.50;99.90;;;;;;4995736;28;20186;-73
2024/01/02 01:15:40;;;;;;;8.07;2.42;;;30.20;99.90;;;;;;4995536;28;20192;-72
2024/01/02 01:18:08;;;;;;;8.13;2.33;;;30.60;99.90;;;;;;4989414;28;20210;-71
2024/01/02 01:20:36;;;;;;;6.17;2.20;;;31.10;99.90;;;;;;4980901;28;20708;-71
2024/01/02 01:23:03;;;;;;;9.13;2.47;;;30.80;99.90;;;;;;4989666;28;20187;-71
2024/01/02 01:25:31;;;;;;;4.30;2.30;;;30.40;99.90;;;;;;4990256;28;20191;-72
2024/01/02 01:27:59;;;;;;;6.73;1.83;;;30.10;99.90;;;;;;4977096;28;20199;-72
2024/01/02 01:30:27;;;;;;;7.40;2.33;;;30.10;99.90;;;;;;4983914;28;20225;-71
2024/01/02 01:32:54;;;;;;;6.77;1.93;;;30.20;99.90;;;;;;4996641;28;20178;-71
2024/01/02 01:35:22;;;;;;;5.03;2.10;;;30.20;99.90;;;;;;4996305;28;20231;-72
2024/01/02 01:37:50;;;;;;;9.20;2.45;;;30.30;99.90;;;;;;4996600;28;20269;-72
2024/01/02 01:40:17;;;;;;;3.83;1.90;;;30.90;99.90;;;;;;4996446;28;20266;-72
2024/01/02 01:42:45;;;;;;;5.43;2.43;;;30.90;99.90;;;;;;4996797;28;20582;-72
2024/01/02 01:45:13;;;;;;;4.93;2.43;;;30.50;99.90;;;;;;4996342;28;20236;-72
2024/01/02 01:47:42;;;;;;;6.60;2.00;;;30.20;99.90;;;;;;4996512;28;20174;-71
2024/01/02 01:50:10;;;;;;;5.97;2.15;;;31.10;99.90;;;;;;4996264;28;20217;-72
2024/01/02 01:52:38;;;;;;;4.22;2.10;;;31.10;99.90;;;;;;4996392;28;20274;-72
2024/01/02 01:55:06;;;;;;;5.93;2.05;;;31.00;99.90;;;;;;4996375;28;20612;-72
2024/01/02 01:57:34;;;;;;;3.70;1.80;;;30.90;99.90;;;;;;4995396;28;20179;-72
2024/01/02 02:00:04;;;;;;;6.93;2.33;;;30.60;99.90;;;;;;4994565;28;20177;-72
2024/01/02 02:02:33;;;;;;;4.47;1.80;;;30.40;99.90;;;;;;4996077;28;20206;-72
2024/01/02 02:05:02;;;;;;;3.78;2.03;;;30.30;99.90;;;;;;4996231;28;20180;-71
2024/01/02 02:07:30;;;;;;;3.07;1.87;;;30.00;99.90;;;;;;4996182;28;20632;-73
2024/01/02 02:09:58;;;;;;;4.93;2.13;;;29.90;99.90;;;;;;4996031;28;20754;-72
2024/01/02 02:12:26;;;;;;;9.10;2.30;;;30.00;99.90;;;;;;4996055;28;20175;-72
2024/01/02 02:14:54;;;;;;;7.27;2.50;;;30.10;99.90;;;;;;4996006;28;20183;-72
2024/01/02 02:17:22;;;;;;;7.82;2.35;;;30.10;99.90;;;;;;4995711;28;20170;-71
2024/01/02 02:19:49;;;;;;;9.57;2.57;;;30.20;99.90;;;;;;4996000;28;20213;-73
2024/01/02 02:22:19;;;;;;;6.38;2.17;;;30.30;99.90;;;;;;4994403;28;20546;-72
2024/01/02 02:24:47;;;;;;;6.67;2.47;;;30.20;99.90;;;;;;4995765;28;20179;-71
2024/01/02 02:27:16;;;;;;;6.80;1.90;;;30.40;99.90;;;;;;4994238;28;20684;-72
2024/01/02 02:29:44;;;;;;;8.18;2.70;;;30.30;99.90;;;;;;4995469;28;20210;-71
2024/01/02 02:32:12;;;;;;;10.00;2.17;;;30.30;99.90;;;;;;4995531;28;20636;-71
2024/01/02 02:34:39;;;;;;;10.27;2.40;;;30.30;99.90;;;;;;4995588;28;20218;-70
2024/01/02 02:37:07;;;;;;;5.10;1.75;;;30.60;99.90;;;;;;4995405;28;20228;-71
2024/01/02 02:39:35;;;;;;;7.40;2.35;;;30.80;99.90;;;;;;4994148;28;20183;-71
2024/01/02 02:42:02;;;;;;;9.75;2.60;;;31.30;99.90;;;;;;4995425;28;20174;-71
2024/01/02 02:44:31;;;;;;;6.72;2.00;;;32.20;99.90;;;;;;4995586;28;20197;-72
2024/01/02 02:46:59;;;;;;;8.50;2.28;;;32.70;99.90;;;;;;4995332;28;20190;-72
2024/01/02 02:49:27;;;;;;;6.57;2.58;;;33.10;99.90;;;;;;4995282;28;20237;-72
2024/01/02 02:51:55;;;;;;;8.57;2.53;;;33.20;99.90;;;;;;4995165;28;20234;-71
2024/01/02 02:54:22;;;;;;;8.70;2.30;;;32.40;99.90;;;;;;4989325;28;20184;-71
2024/01/02 02:56:50;;;;;;;8.60;2.05;;;31.70;99.90;;;;;;4978812;28;20226;-72
2024/01/02 02:59:18;;;;;;;7.07;1.90;;;31.00;99.90;;;;;;4975744;28;20176;-72
2024/01/02 03:01:45;;;;;;;9.05;2.60;;;30.80;99.90;;;;;;4975645;28;20172;-71
2024/01/02 03:04:13;;;;;;;7.72;1.80;;;30.50;99.90;;;;;;4975771;28;20511;-73
2024/01/02 03:06:41;;;;;;;10.15;2.70;;;30.40;99.90;;;;;;4974390;28;20266;-72
2024/01/02 03:09:10;;;;;;;9.20;2.37;;;30.20;99.90;;;;;;4974441;28;20689;-73
2024/01/02 03:11:37;;;;;;;11.27;2.10;;;30.10;99.90;;;;;;4974181;28;20222;-73
2024/01/02 03:14:05;;;;;;;11.50;2.87;;;30.10;99.90;;;;;;4975571;28;20179;-72
2024/01/02 03:16:33;;;;;;;6.53;1.95;;;29.90;99.90;;;;;;4975517;28;20680;-73
2024/01/02 03:19:01;;;;;;;9.70;2.20;;;30.00;99.90;;;;;;4975218;28;20179;-72
2024/01/02 03:21:29;;;;;;;10.30;2.10;;;29.80;99.90;;;;;;4975282;28;20290;-72
2024/01/02 03:23:58;;;;;;;6.07;2.57;;;29.80;99.90;;;;;;4975237;28;20582;-72
2024/01/02 03:26:26;;;;;;;10.37;2.30;;;29.80;99.90;;;;;;4975149;28;20175;-70
2024/01/02 03:28:53;;;;;;;6.07;2.17;;;29.70;99.90;;;;;;4975272;28;20310;-70
2024/01/02 03:31:21;;;;;;;9.57;2.50;;;29.60;99.90;;;;;;4974958;28;20262;-71
2024/01/02 03:33:48;;;;;;;7.33;2.23;;;29.50;99.90;;;;;;4974898;28;20187;-71
2024/01/02 03:36:20;;;;;;;7.70;2.07;;;29.30;99.90;;;;;;4974979;28;20206;-72
2024/01/02 03:38:49;;;;;;;8.43;2.30;;;29.20;99.90;;;;;;4975223;28;20187;-72
2024/01/02 03:41:18;;;;;;;7.90;2.40;;;29.30;99.90;;;;;;4973645;28;20253;-72
2024/01/02 03:43:46;;;;;;;10.20;2.40;;;29.40;99.90;;;;;;4974717;28;20191;-72
2024/01/02 03:46:14;;;;;;;7.70;2.00;;;29.40;99.90;;;;;;4978826;28;20183;-72
2024/01/02 03:48:42;;;;;;;11.67;2.30;;;29.90;99.90;;;;;;4961125;28;20222;-71
2024/01/02 03:51:09;;;;;;;10.10;2.73;;;30.10;99.90;;;;;;4988833;28;20261;-72
2024/01/02 03:53:37;;;;;;;12.07;2.90;;;30.00;99.90;;;;;;4991349;28;20194;-73
2024/01/02 03:56:05;;;;;;;7.20;2.43;;;29.80;99.90;;;;;;4985649;28;20645;-73
2024/01/02 03:58:33;;;;;;;13.03;2.80;;;29.80;99.90;;;;;;4972852;28;20180;-72
2024/01/02 04:01:01;;;;;;;11.07;2.47;;;29.90;99.90;;;;;;4977382;28;20222;-72
2024/01/02 04:03:28;;;;;;;6.80;2.10;;;29.70;99.90;;;;;;4979809;28;20673;-74
2024/01/02 04:05:56;;;;;;;12.77;2.80;;;30.20;99.90;;;;;;4974352;28;20202;-74
2024/01/02 04:08:24;;;;;;;9.27;2.53;;;30.60;99.90;;;;;;4973531;28;20257;-74
2024/01/02 04:10:51;;;;;;;7.50;2.13;;;30.20;99.90;;;;;;4973150;28;20562;-73
2024/01/02 04:13:19;;;;;;;12.40;2.73;;;29.60;99.90;;;;;;4973254;28;20190;-73
2024/01/02 04:15:47;;;;;;;6.63;2.47;;;29.70;99.90;;;;;;4990484;28;20320;-73
2024/01/02 04:18:14;;;;;;;7.80;2.33;;;30.00;99.90;;;;;;4992558;28;20183;-74
2024/01/02 04:20:42;;;;;;;8.67;2.10;;;30.00;99.90;;;;;;4991698;28;20174;-74
2024/01/02 04:23:10;;;;;;;7.20;2.33;;;30.10;99.90;;;;;;4992638;28;20186;-73
2024/01/02 04:25:37;;;;;;;7.07;2.23;;;29.90;99.90;;;;;;4973687;28;20190;-74
2024/01/02 04:28:05;;;;;;;9.33;2.03;;;29.80;99.90;;;;;;4972751;28;20186;-74
2024/01/02 04:30:37;;;;;;;11.60;2.80;;;30.30;99.90;;;;;;4972946;28;20222;-74
2024/01/02 04:33:06;;;;;;;7.40;1.80;;;30.60;99.90;;;;;;4979745;28;20790;-75
2024/01/02 04:35:35;;;;;;;6.28;1.98;;;30.60;99.90;;;;;;4973099;28;20237;-74
2024/01/02 04:38:02;;;;;;;6.63;2.15;;;30.40;99.90;;;;;;4972892;28;20183;-75
2024/01/02 04:40:30;;;;;;;9.23;2.17;;;30.30;99.90;;;;;;4972795;28;20699;-74
2024/01/02 04:43:17;;;;;;;7.93;2.00;;;30.50;99.90;;;;;;4972878;28;20171;-73
2024/01/02 04:49:07;;;;;;;6.57;2.17;;;30.40;99.90;;;;;;4982369;28;20230;-74
2024/01/02 04:51:35;;;;;;;8.70;1.90;;;30.50;99.90;;;;;;4981876;28;20661;-74
2024/01/02 04:54:03;;;;;;;10.53;2.57;;;30.40;99.90;;;;;;4974107;28;20558;-74
2024/01/02 04:56:30;;;;;;;7.57;2.53;;;30.20;99.90;;;;;;4972564;28;20209;-74
2024/01/02 04:58:58;;;;;;;6.55;2.15;;;30.40;99.90;;;;;;4972749;28;20257;-74
2024/01/02 05:01:26;;;;;;;7.80;2.33;;;30.60;99.90;;;;;;4972951;28;20207;-73
2024/01/02 05:03:54;;;;;;;14.30;2.37;;;30.10;99.90;;;;;;4972433;28;20643;-74
2024/01/02 05:06:23;;;;;;;6.10;2.00;;;29.70;99.90;;;;;;4987890;28;20183;-73
2024/01/02 05:08:51;;;;;;;10.47;2.50;;;29.60;99.90;;;;;;4982427;28;20207;-74
2024/01/02 05:11:19;;;;;;;11.77;2.70;;;29.40;99.90;;;;;;4986130;28;20199;-74
2024/01/02 05:13:46;;;;;;;9.80;2.20;;;29.10;99.90;;;;;;4986374;28;20222;-74
2024/01/02 05:16:14;;;;;;;8.83;2.30;;;28.90;99.90;;;;;;4982558;28;20241;-74
2024/01/02 05:18:42;;;;;;;8.70;1.93;;;28.90;99.90;;;;;;4978763;28;20553;-73
2024/01/02 05:21:10;;;;;;;12.33;2.07;;;29.20;99.90;;;;;;4984734;28;20391;-73
2024/01/02 05:23:38;;;;;;;8.57;1.73;;;29.30;99.90;;;;;;4978785;28;20199;-75
2024/01/02 05:26:06;;;;;;;11.40;2.60;;;29.40;99.90;;;;;;4991211;28;20273;-73
2024/01/02 05:28:34;;;;;;;7.50;1.93;;;29.30;99.90;;;;;;4992307;28;20667;-75
2024/01/02 05:31:02;;;;;;;10.97;2.10;;;29.20;99.90;;;;;;4981105;28;20218;-74
2024/01/02 05:33:29;;;;;;;11.23;2.60;;;29.40;99.90;;;;;;4982947;28;20193;-74
2024/01/02 05:35:58;;;;;;;6.87;2.00;;;29.20;99.90;;;;;;4977541;28;20740;-74
2024/01/02 05:38:26;;;;;;;7.80;2.07;;;29.00;99.90;;;;;;4987950;28;20182;-75
2024/01/02 05:40:56;;;;;;;8.10;1.97;;;28.70;99.90;;;;;;4995039;28;20313;-73
2024/01/02 05:43:24;;;;;;;10.83;1.90;;;28.60;99.90;;;;;;4995553;28;20656;-75
2024/01/02 05:45:52;;;;;;;7.93;2.70;;;28.40;99.90;;;;;;4986708;28;20648;-73
2024/01/02 05:48:19;;;;;;;7.37;2.37;;;28.40;99.90;;;;;;4984498;28;20208;-74
2024/01/02 05:50:47;;;;;;;8.13;2.10;;;28.50;99.90;;;;;;4991426;28;20187;-74
2024/01/02 05:53:15;;;;;;;5.23;1.97;;;28.40;99.90;;;;;;4975922;28;20172;-73
2024/01/02 05:55:42;;;;;;;7.10;1.90;;;28.20;99.90;;;;;;4982840;28;20179;-74
2024/01/02 05:58:10;;;;;;;6.60;2.20;;;28.30;99.90;;;;;;4995207;28;20237;-73
2024/01/02 06:00:38;;;;;;;8.87;2.00;;;28.30;99.90;;;;;;4989174;28;20206;-75
2024/01/02 06:03:06;;;;;;;5.80;2.13;;;28.30;99.90;;;;;;4980909;28;20179;-74
2024/01/02 06:05:33;;;;;;;4.33;1.63;;;28.30;99.90;;;;;;4980675;28;20286;-75
2024/01/02 06:08:01;;;;;;;5.33;1.47;;;28.30;99.90;;;;;;4994886;28;20190;-74
2024/01/02 06:10:29;;;;;;;8.03;1.83;;;28.40;99.90;;;;;;4994161;28;20224;-74
2024/01/02 06:12:56;;;;;;;3.60;1.70;;;28.40;99.90;;;;;;4991718;28;20222;-73
2024/01/02 06:15:24;;;;;;;6.07;2.17;;;28.40;99.90;;;;;;4984468;28;20669;-76
2024/01/02 06:17:52;;;;;;;6.60;2.23;;;28.60;99.90;;;;;;4994365;28;20241;-75
2024/01/02 06:20:20;;;;;;;6.57;1.77;;;29.00;99.90;;;;;;4994796;28;20167;-73
2024/01/02 06:22:47;;;;;;;6.73;2.03;;;29.30;99.90;;;;;;4988839;28;20258;-74
2024/01/02 06:25:15;;;;;;;5.47;1.40;;;29.50;99.90;;;;;;4982574;28;20180;-72
2024/01/02 06:27:43;;;;;;;7.57;1.97;;;29.60;99.90;;;;;;4975376;28;20230;-73
2024/01/02 06:30:11;;;;;;;7.37;1.70;;;29.20;99.90;;;;;;4982706;28;20222;-73
2024/01/02 06:32:38;;;;;;;9.77;1.80;;;28.80;99.90;;;;;;4992782;28;20178;-73
2024/01/02 06:35:06;;;;;;;6.83;1.50;;;28.70;99.90;;;;;;4994323;28;20595;-74
2024/01/02 06:37:34;;;;;;;7.77;1.80;;;28.40;99.90;;;;;;4976514;28;20188;-74
2024/01/02 06:40:02;;;;;;;4.77;1.47;;;28.10;99.90;;;;;;4974578;28;20171;-74
2024/01/02 06:42:30;;;;;;;5.10;1.50;;;28.00;99.90;;;;;;4974867;28;20256;-74
2024/01/02 06:44:57;;;;;;;6.00;1.73;;;27.70;99.90;;;;;;4975143;28;20171;-74
2024/01/02 06:47:25;;;;;;;5.13;1.47;;;27.50;99.90;;;;;;4987355;28;20191;-74
2024/01/02 06:49:53;;;;;;;10.43;1.80;;;27.30;99.90;;;;;;4977419;28;20669;-74
2024/01/02 06:52:20;;;;;;;9.57;1.80;;;27.20;99.90;;;;;;4979087;28;20214;-74
2024/01/02 06:54:48;;;;;;;3.57;1.33;;;27.10;99.90;;;;;;4993549;28;20253;-74
2024/01/02 06:57:16;;;;;;;6.80;1.70;;;27.10;99.90;;;;;;4992562;28;20179;-74
2024/01/02 06:59:45;;;;;;;5.17;1.60;;;27.00;99.90;;;;;;4993877;28;20183;-74
2024/01/02 07:02:13;;;;;;;6.77;1.57;;;26.90;99.90;;;;;;4993586;28;20178;-74
2024/01/02 07:04:40;;;;;;;9.83;1.80;;;26.90;99.90;;;;;;4992186;28;20293;-74
2024/01/02 07:07:09;;;;;;;8.30;2.03;;;26.80;99.90;;;;;;4978578;28;20199;-74
2024/01/02 07:09:36;;;;;;;8.10;2.50;;;26.80;99.90;;;;;;4973890;28;20251;-75
2024/01/02 07:12:05;;;;;;;7.77;1.50;;;26.80;99.90;;;;;;4974382;28;20199;-74
2024/01/02 07:14:33;;;;;;;7.93;1.87;;;26.80;99.90;;;;;;4974243;28;20187;-74
2024/01/02 07:17:01;;;;;;;11.23;2.10;;;26.80;99.90;;;;;;4987735;28;20209;-74
2024/01/02 07:19:29;;;;;;;7.13;1.80;;;26.80;99.90;;;;;;4993630;28;20193;-74
2024/01/02 07:21:56;;;;;;;9.30;1.70;;;26.70;99.90;;;;;;4993634;28;20175;-74
2024/01/02 07:24:24;;;;;;;6.10;1.27;;;26.70;99.90;;;;;;4985387;28;20195;-74
2024/01/02 07:26:52;;;;;;;8.13;1.50;;;26.70;99.90;;;;;;4977371;28;20222;-74
2024/01/02 07:29:19;;;;;;;9.07;1.50;;;26.50;99.90;;;;;;4972625;28;20245;-74
2024/01/02 07:31:47;;;;;;;6.33;1.77;;;26.50;99.90;;;;;;4973569;28;20183;-74
2024/01/02 07:34:15;;;;;;;7.40;1.63;;;26.40;99.90;;;;;;4973875;28;20289;-74
2024/01/02 07:36:43;;;;;;;9.43;1.60;;;26.30;99.90;;;;;;4980435;28;20257;-74
2024/01/02 07:42:32;;;;;;;8.47;1.40;;;26.10;99.90;;;;;;4981112;28;20198;-74
2024/01/02 07:45:00;;;;;;;9.00;1.53;;;26.10;99.90;;;;;;4974685;28;20186;-71
2024/01/02 07:47:29;;;;;;;6.40;1.63;;;26.00;99.90;;;;;;4974232;28;20195;-72
2024/01/02 07:49:57;;;;;;;9.53;1.50;;;26.00;99.90;;;;;;4986069;28;20284;-73
2024/01/02 07:52:24;;;;;;;8.60;2.27;;;26.00;99.90;;;;;;4978168;28;20223;-74
2024/01/02 07:54:52;;;;;;;7.07;2.10;;;25.90;99.90;;;;;;4985323;28;20214;-71
2024/01/02 07:57:20;;;;;;;7.80;1.40;;;25.80;99.90;;;;;;4973807;28;20186;-71
2024/01/02 07:59:47;;;;;;;5.77;1.63;;;25.80;99.90;;;;;;4973473;28;20175;-71
2024/01/02 08:02:15;;;;;;;12.13;1.83;;;25.80;99.90;;;;;;4972822;28;20314;-71
2024/01/02 08:04:43;;;;;;;7.70;1.73;;;25.80;99.90;;;;;;4989448;28;20649;-72
2024/01/02 08:07:10;;;;;;;7.13;1.60;;;25.80;99.90;;;;;;4980897;28;20233;-71
2024/01/02 08:09:38;;;;;;;7.80;1.57;;;25.90;99.90;;;;;;4984610;28;20237;-72
2024/01/02 08:12:06;;;;;;;8.10;1.83;;;25.90;99.90;;;;;;4974413;28;20190;-73
2024/01/02 08:14:34;;;;;;;12.87;1.80;;;25.80;99.90;;;;;;4974528;28;20175;-73
2024/01/02 08:17:01;;;;;;;7.60;1.97;;;25.70;99.90;;;;;;4975421;28;20186;-72
2024/01/02 08:19:29;;;;;;;10.13;1.43;;;25.60;99.90;;;;;;4993885;28;20190;-71
2024/01/02 08:21:57;;;;;;;7.00;1.70;;;25.40;99.90;;;;;;4993684;28;20554;-73
2024/01/02 08:24:24;;;;;;;3.97;1.00;;;25.40;99.90;;;;;;4993925;28;20665;-72
2024/01/02 08:26:52;;;;;;;9.13;1.70;;;25.40;99.90;;;;;;4993805;28;20178;-73
2024/01/02 08:29:20;;;;;;;7.17;1.57;;;25.20;99.90;;;;;;4993654;28;20210;-72
2024/01/02 08:31:52;;;;;;;6.33;1.70;;;25.20;99.90;;;;;;4998193;28;20177;-74
2024/01/02 08:35:08;;;;;;;9.53;1.40;;;25.20;99.90;;;;;;4988057;28;20231;-71
2024/01/02 08:37:36;;;;;;;9.97;2.20;;;25.10;99.90;;;;;;4992797;28;20238;-72
2024/01/02 08:40:04;;;;;;;7.97;1.80;;;25.00;99.90;;;;;;4988412;28;20194;-72
2024/01/02 08:42:32;;;;;;;10.23;2.07;;;25.00;99.90;;;;;;4993394;28;20627;-72
2024/01/02 08:45:00;;;;;;;8.87;1.53;;;24.90;99.90;;;;;;4993541;28;20203;-72
2024/01/02 08:47:27;;;;;;;8.23;1.90;;;24.90;99.90;;;;;;4992205;28;20187;-72
2024/01/02 08:49:55;;;;;;;9.53;1.50;;;24.90;99.90;;;;;;4993599;28;20552;-71
2024/01/02 08:52:23;;;;;;;11.77;1.73;;;25.00;99.90;;;;;;4993303;28;20636;-72
2024/01/02 08:54:50;;;;;;;9.57;2.00;;;25.00;99.90;;;;;;4993367;28;20627;-72
2024/01/02 08:57:18;;;;;;;8.20;1.50;;;25.00;99.90;;;;;;4993125;28;20190;-71
2024/01/02 08:59:46;;;;;;;9.50;1.57;;;24.90;99.90;;;;;;4993175;28;20175;-72
2024/01/02 09:02:13;;;;;;;7.40;1.70;;;24.80;99.90;;;;;;4993177;28;20186;-73
2024/01/02 09:04:43;;;;;;;7.47;1.73;;;24.80;99.90;;;;;;4993350;28;20178;-72
2024/01/02 09:07:11;;;;;;;11.53;2.03;;;24.80;99.90;;;;;;4996951;28;20214;-72
2024/01/02 09:09:38;;;;;;;11.77;2.00;;;24.80;99.90;;;;;;4997166;28;20214;-72
2024/01/02 09:12:08;;;;;;;8.27;1.83;;;24.80;99.90;;;;;;4996989;28;20229;-72
2024/01/02 09:14:36;;;;;;;7.63;1.73;;;24.70;99.90;;;;;;4997265;28;20186;-72
2024/01/02 09:17:03;;;;;;;4.67;1.63;;;24.80;99.90;;;;;;4989620;28;20179;-70
2024/01/02 09:19:31;;;;;;;8.67;1.73;;;24.70;99.90;;;;;;4977955;28;20183;-71
2024/01/02 09:21:59;;;;;;;6.70;1.57;;;24.70;99.90;;;;;;4977385;28;20199;-72
2024/01/02 09:24:27;;;;;;;9.47;1.80;;;24.70;99.90;;;;;;4976190;28;20194;-72
2024/01/02 09:26:59;;;;;;;10.00;1.60;;;24.70;99.90;;;;;;4977325;28;20179;-72
2024/01/02 09:29:27;;;;;;;6.70;1.80;;;24.70;99.90;;;;;;4977198;28;20218;-73
2024/01/02 09:31:55;;;;;;;9.43;1.63;;;24.60;99.90;;;;;;4977644;28;20240;-73
2024/01/02 09:34:24;;;;;;;7.17;1.70;;;24.60;99.90;;;;;;4977261;28;20180;-73
2024/01/02 09:36:52;;;;;;;7.07;1.60;;;24.60;99.90;;;;;;4976928;28;20326;-72
2024/01/02 09:39:21;;;;;;;5.47;1.73;;;24.50;99.90;;;;;;4977226;28;20183;-72
2024/01/02 09:42:19;;;;;;;7.90;2.23;;;24.50;99.90;;;;;;4977274;28;20202;-72
2024/01/02 09:45:24;;;;;;;7.07;1.70;;;24.50;99.90;;;;;;4977361;28;20259;-72
2024/01/02 09:48:33;;;;;;;8.77;1.43;;;24.40;99.90;;;;;;4968784;28;20302;-73
2024/01/02 09:51:15;;;;;;;6.67;1.70;;;24.40;99.90;;;;;;4968178;28;20215;-72
2024/01/02 09:54:07;;;;;;;10.17;2.07;;;24.40;99.90;;;;;;4976999;28;20179;-72
2024/01/02 09:56:48;;;;;;;12.40;2.60;;;24.40;99.90;;;;;;4976978;28;20637;-73
2024/01/02 09:59:33;;;;;;;12.70;1.80;;;24.40;99.90;;;;;;4977092;28;20175;-72
2024/01/02 10:02:23;;;;;;;9.77;1.63;;;24.30;99.90;;;;;;4976946;28;20181;-73
2024/01/02 10:04:51;;;;;;;10.07;2.03;;;24.20;99.90;;;;;;4975624;28;20237;-73
2024/01/02 10:07:41;;;;;;;9.03;2.33;;;24.20;99.90;;;;;;4976629;28;20691;-72
2024/01/02 10:10:12;;;;;;;8.77;2.13;;;24.20;99.90;;;;;;4976568;28;20225;-72
2024/01/02 10:12:49;;;;;;;8.47;2.10;;;24.10;99.90;;;;;;4976677;28;20214;-72
2024/01/02 10:15:32;;;;;;;14.33;2.17;;;24.10;99.90;;;;;;4976444;28;20530;-72
2024/01/02 10:18:16;;;;;;;6.73;1.93;;;24.10;99.90;;;;;;4983986;28;20225;-73
2024/01/02 10:20:57;;;;;;;9.73;2.10;;;24.10;99.90;;;;;;4994466;28;20189;-72
2024/01/02 10:23:55;;;;;;;8.90;2.03;;;24.10;99.90;;;;;;4996108;28;20171;-73
2024/01/02 10:26:25;;;;;;;15.20;3.17;;;24.10;99.90;;;;;;4995877;28;20562;-72
2024/01/02 10:29:01;;;;;;;12.20;2.20;;;24.10;99.90;;;;;;4995763;28;20619;-73
2024/01/02 10:32:11;;;;;;;12.23;2.93;;;24.10;99.90;;;;;;4995875;28;20202;-73
2024/01/02 10:34:48;;;;;;;12.10;2.30;;;24.00;99.90;;;;;;4974332;28;20210;-72
2024/01/02 10:37:17;;;;;;;11.53;2.13;;;24.00;99.90;;;;;;4992720;28;20237;-72
2024/01/02 10:39:59;;;;;;;11.70;2.07;;;24.00;99.90;;;;;;4995704;28;20206;-72
2024/01/02 10:42:39;;;;;;;8.57;2.03;;;24.10;99.90;;;;;;4995391;28;20594;-72
2024/01/02 10:45:18;;;;;;;9.40;1.70;;;24.10;99.90;;;;;;4995677;28;20182;-73
2024/01/02 10:48:27;;;;;;;9.60;1.63;;;24.10;99.90;;;;;;4995630;28;20198;-73
2024/01/02 10:51:08;;;;;;;10.73;1.70;;;24.10;99.90;;;;;;4995463;28;20266;-73
2024/01/02 10:53:45;;;;;;;14.00;2.63;;;24.10;99.90;;;;;;4995906;28;20190;-72
2024/01/02 10:56:33;;;;;;;10.73;1.90;;;24.10;99.90;;;;;;4995150;28;20661;-72
2024/01/02 10:59:27;;;;;;;14.40;2.43;;;24.10;99.90;;;;;;4984797;28;20209;-72
2024/01/02 11:02:21;;;;;;;9.37;1.73;;;24.10;99.90;;;;;;4995620;28;20193;-73
2024/01/02 11:05:10;;;;;;;9.77;2.10;;;24.10;99.90;;;;;;4995217;28;20635;-72
2024/01/02 11:07:46;;;;;;;10.73;2.40;;;24.10;99.90;;;;;;4995294;28;20182;-72
2024/01/02 11:10:23;;;;;;;17.27;2.43;;;24.10;99.90;;;;;;4995382;28;20304;-72
2024/01/02 11:13:03;;;;;;;11.43;2.20;;;24.00;99.90;;;;;;4995232;28;20174;-72
2024/01/02 11:15:37;;;;;;;9.77;1.90;;;24.00;99.90;;;;;;4994867;28;20174;-72
2024/01/02 11:18:06;;;;;;;11.93;1.77;;;23.90;99.90;;;;;;4994776;28;20178;-72
2024/01/02 11:20:49;;;;;;;8.13;2.63;;;23.90;99.90;;;;;;4994996;28;20181;-72
2024/01/02 11:23:20;;;;;;;8.53;1.80;;;23.80;99.90;;;;;;4994976;28;20232;-73
2024/01/02 11:26:15;;;;;;;10.43;2.47;;;23.80;99.90;;;;;;4994835;28;20206;-72
2024/01/02 11:28:46;;;;;;;7.43;2.07;;;23.80;99.90;;;;;;4984549;28;20219;-73
2024/01/02 11:31:14;;;;;;;11.50;1.73;;;23.80;99.90;;;;;;4994293;28;20673;-72
2024/01/02 11:34:01;;;;;;;8.07;1.90;;;23.80;99.90;;;;;;4977372;28;20266;-72
2024/01/02 11:36:54;;;;;;;8.93;1.57;;;23.80;99.90;;;;;;4983369;28;20245;-72
2024/01/02 11:39:36;;;;;;;11.73;1.97;;;23.70;99.90;;;;;;4992715;28;20179;-72
2024/01/02 11:42:21;;;;;;;8.10;2.00;;;23.70;99.90;;;;;;4992094;28;20190;-71
2024/01/02 11:45:13;;;;;;;13.50;1.80;;;23.70;99.90;;;;;;4993538;28;20198;-72
2024/01/02 11:47:53;;;;;;;10.30;2.17;;;23.60;99.90;;;;;;4993711;28;20183;-73
2024/01/02 11:50:29;;;;;;;9.50;1.97;;;23.60;99.90;;;;;;4993339;28;20256;-72
2024/01/02 11:53:05;;;;;;;9.57;2.10;;;23.70;99.90;;;;;;4974695;28;20178;-72
2024/01/02 11:56:03;;;;;;;7.43;2.13;;;23.80;99.90;;;;;;4977042;28;20182;-72
2024/01/02 11:58:52;;;;;;;9.77;1.93;;;23.70;99.90;;;;;;4977523;28;20348;-72
2024/01/02 12:01:30;;;;;;;7.73;1.90;;;23.70;99.90;;;;;;4983441;28;20214;-72
2024/01/02 12:04:10;;;;;;;7.27;1.70;;;23.70;99.90;;;;;;4997499;28;20172;-72
2024/01/02 12:07:13;;;;;;;13.30;1.87;;;23.60;99.90;;;;;;4991138;28;20671;-73
2024/01/02 12:09:46;;;;;;;9.20;2.30;;;23.60;99.90;;;;;;4988381;28;20218;-73
2024/01/02 12:12:19;;;;;;;11.03;2.20;;;23.60;99.90;;;;;;4993640;28;20186;-73
2024/01/02 12:14:57;;;;;;;11.23;2.03;;;23.60;99.90;;;;;;4984455;28;20211;-73
2024/01/02 12:17:29;;;;;;;10.53;2.20;;;23.60;99.90;;;;;;4974725;28;20183;-73
2024/01/02 12:20:06;;;;;;;8.47;2.00;;;23.60;99.90;;;;;;4973165;28;20609;-73
2024/01/02 12:22:34;;;;;;;9.00;2.03;;;23.60;99.90;;;;;;4985993;28;20178;-73
2024/01/02 12:25:09;;;;;;;7.83;1.47;;;23.50;99.90;;;;;;4993401;28;20544;-73
2024/01/02 12:27:39;;;;;;;9.50;2.00;;;23.50;99.90;;;;;;4972894;28;20225;-73
2024/01/02 12:30:08;;;;;;;7.00;1.77;;;23.60;99.90;;;;;;4974123;28;20712;-73
2024/01/02 12:32:56;;;;;;;5.30;1.60;;;23.60;99.90;;;;;;4975138;28;20183;-73
2024/01/02 12:35:49;;;;;;;6.13;1.80;;;23.80;99.90;;;;;;4993748;28;20185;-73
2024/01/02 12:38:22;;;;;;;7.83;1.90;;;23.80;99.90;;;;;;4992227;28;20191;-73
2024/01/02 12:40:55;;;;;;;9.73;1.87;;;23.80;99.90;;;;;;4993053;28;20269;-73
2024/01/02 12:43:29;;;;;;;12.43;1.80;;;23.80;99.90;;;;;;4993242;28;20257;-73
2024/01/02 12:46:19;;;;;;;8.43;1.70;;;23.80;99.90;;;;;;4993242;28;20583;-73
2024/01/02 12:49:11;;;;;;;9.37;1.50;;;23.80;99.90;;;;;;4993511;28;20202;-73
2024/01/02 12:51:46;;;;;;;5.47;1.20;;;23.80;99.90;;;;;;4993380;28;20193;-72
2024/01/02 12:54:21;;;;;;;8.30;1.83;;;23.80;99.90;;;;;;4986408;28;20608;-72
2024/01/02 12:56:54;;;;;;;6.60;1.60;;;23.80;99.90;;;;;;4974011;28;20213;-72
2024/01/02 12:59:29;;;;;;;7.57;1.50;;;23.80;99.90;;;;;;4974069;28;20176;-72
2024/01/02 13:01:58;;;;;;;5.73;2.03;;;23.80;99.90;;;;;;4974087;28;20182;-73
2024/01/02 13:04:26;;;;;;;10.47;1.43;;;23.80;99.90;;;;;;4973826;28;20180;-73
2024/01/02 13:06:55;;;;;;;5.80;1.77;;;23.80;99.90;;;;;;4973967;28;20274;-73
2024/01/02 13:09:25;;;;;;;8.90;1.73;;;23.80;99.90;;;;;;4973691;28;20231;-72
2024/01/02 13:11:53;;;;;;;7.67;1.77;;;23.80;99.90;;;;;;4974196;28;20536;-72
2024/01/02 13:14:21;;;;;;;9.47;1.87;;;23.70;99.90;;;;;;4973835;28;20202;-73